sensor_id;sensor_type;location;lat;lon;timestamp;pressure;altitude;pressure_sealevel;temperature;humidity
13869;BME280;7004;48.206;16.402;2023-10-09T00:02:11;100705.75;;;12.73;77.06
13869;BME280;7004;48.206;16.402;2023-10-09T00:04:38;100696.38;;;13.44;74.22
13869;BME280;7004;48.206;16.402;2023-10-09T00:07:07;100700.44;;;13.35;74.39
13869;BME280;7004;48.206;16.402;2023-10-09T00:09:37;100697.78;;;13.35;74.82
13869;BME280;7004;48.206;16.402;2023-10-09T00:12:18;100701.00;;;13.40;74.34
13869;BME280;7004;48.206;16.402;2023-10-09T00:14:49;100698.84;;;13.47;74.14
13869;BME280;7004;48.206;16.402;2023-10-09T00:17:19;100696.53;;;13.26;75.20
13869;BME280;7004;48.206;16.402;2023-10-09T00:19:46;100685.81;;;13.12;75.23
13869;BME280;7004;48.206;16.402;2023-10-09T00:22:18;100685.09;;;12.94;76.19
13869;BME280;7004;48.206;16.402;2023-10-09T00:24:50;100677.31;;;13.21;75.04
13869;BME280;7004;48.206;16.402;2023-10-09T00:27:37;100686.50;;;13.31;75.31
13869;BME280;7004;48.206;16.402;2023-10-09T00:30:05;100691.84;;;13.74;73.54
13869;BME280;7004;48.206;16.402;2023-10-09T00:32:32;100688.69;;;13.53;74.10
13869;BME280;7004;48.206;16.402;2023-10-09T00:35:03;100680.63;;;13.10;75.81
13869;BME280;7004;48.206;16.402;2023-10-09T00:37:48;100676.53;;;13.35;75.19
13869;BME280;7004;48.206;16.402;2023-10-09T00:40:17;100684.94;;;12.97;76.91
13869;BME280;7004;48.206;16.402;2023-10-09T00:42:46;100675.34;;;13.25;75.73
13869;BME280;7004;48.206;16.402;2023-10-09T00:45:15;100669.25;;;13.39;75.49
13869;BME280;7004;48.206;16.402;2023-10-09T00:47:51;100660.88;;;13.30;76.29
13869;BME280;7004;48.206;16.402;2023-10-09T00:50:22;100657.69;;;12.94;77.05
13869;BME280;7004;48.206;16.402;2023-10-09T00:52:53;100649.47;;;12.98;75.99
13869;BME280;7004;48.206;16.402;2023-10-09T00:55:27;100647.00;;;12.95;76.95
13869;BME280;7004;48.206;16.402;2023-10-09T00:58:05;100644.16;;;12.98;77.02
13869;BME280;7004;48.206;16.402;2023-10-09T01:00:38;100637.06;;;13.29;75.81
13869;BME280;7004;48.206;16.402;2023-10-09T01:03:16;100627.88;;;13.04;76.32
13869;BME280;7004;48.206;16.402;2023-10-09T01:05:48;100619.06;;;13.04;77.07
13869;BME280;7004;48.206;16.402;2023-10-09T01:08:19;100615.94;;;13.11;76.17
13869;BME280;7004;48.206;16.402;2023-10-09T01:11:16;100616.06;;;13.24;76.30
13869;BME280;7004;48.206;16.402;2023-10-09T01:13:49;100614.78;;;13.01;77.94
13869;BME280;7004;48.206;16.402;2023-10-09T01:16:17;100605.53;;;13.08;78.49
13869;BME280;7004;48.206;16.402;2023-10-09T01:18:44;100607.97;;;12.97;79.29
13869;BME280;7004;48.206;16.402;2023-10-09T01:21:13;100608.19;;;12.78;80.31
13869;BME280;7004;48.206;16.402;2023-10-09T01:23:50;100606.47;;;13.07;79.75
13869;BME280;7004;48.206;16.402;2023-10-09T01:26:40;100607.13;;;13.11;79.66
13869;BME280;7004;48.206;16.402;2023-10-09T01:29:18;100609.47;;;13.01;80.76
13869;BME280;7004;48.206;16.402;2023-10-09T01:31:50;100604.09;;;13.03;80.72
13869;BME280;7004;48.206;16.402;2023-10-09T01:34:33;100600.06;;;13.26;80.00
13869;BME280;7004;48.206;16.402;2023-10-09T01:37:14;100596.91;;;13.19;80.57
13869;BME280;7004;48.206;16.402;2023-10-09T01:39:50;100593.44;;;13.33;79.55
13869;BME280;7004;48.206;16.402;2023-10-09T01:42:18;100596.34;;;13.14;81.63
13869;BME280;7004;48.206;16.402;2023-10-09T01:45:01;100589.72;;;13.21;81.08
13869;BME280;7004;48.206;16.402;2023-10-09T01:47:53;100587.13;;;13.20;80.99
13869;BME280;7004;48.206;16.402;2023-10-09T01:50:23;100577.56;;;13.17;81.27
13869;BME280;7004;48.206;16.402;2023-10-09T01:52:57;100578.59;;;13.15;82.03
13869;BME280;7004;48.206;16.402;2023-10-09T01:55:28;100568.75;;;13.17;81.78
13869;BME280;7004;48.206;16.402;2023-10-09T01:58:04;100574.84;;;13.33;80.65
13869;BME280;7004;48.206;16.402;2023-10-09T02:00:48;100575.19;;;13.12;82.41
13869;BME280;7004;48.206;16.402;2023-10-09T02:03:15;100573.44;;;13.27;81.52
13869;BME280;7004;48.206;16.402;2023-10-09T02:05:42;100573.59;;;13.10;82.29
13869;BME280;7004;48.206;16.402;2023-10-09T02:08:08;100563.97;;;12.93;83.38
13869;BME280;7004;48.206;16.402;2023-10-09T02:10:36;100560.09;;;12.84;82.77
13869;BME280;7004;48.206;16.402;2023-10-09T02:13:05;100558.88;;;13.04;82.01
13869;BME280;7004;48.206;16.402;2023-10-09T02:15:40;100551.75;;;12.90;80.67
13869;BME280;7004;48.206;16.402;2023-10-09T02:18:26;100548.94;;;13.22;80.03
13869;BME280;7004;48.206;16.402;2023-10-09T02:21:13;100534.25;;;13.02;80.74
13869;BME280;7004;48.206;16.402;2023-10-09T02:23:40;100526.56;;;12.53;81.28
13869;BME280;7004;48.206;16.402;2023-10-09T02:26:17;100536.25;;;13.27;79.10
13869;BME280;7004;48.206;16.402;2023-10-09T02:28:54;100527.31;;;13.14;79.28
13869;BME280;7004;48.206;16.402;2023-10-09T02:31:31;100525.22;;;12.90;79.92
13869;BME280;7004;48.206;16.402;2023-10-09T02:34:07;100520.00;;;13.03;79.70
13869;BME280;7004;48.206;16.402;2023-10-09T02:36:42;100508.81;;;13.12;79.61
13869;BME280;7004;48.206;16.402;2023-10-09T02:39:25;100503.34;;;13.30;78.61
13869;BME280;7004;48.206;16.402;2023-10-09T02:41:58;100513.38;;;13.10;79.02
13869;BME280;7004;48.206;16.402;2023-10-09T02:44:28;100520.63;;;12.78;81.22
13869;BME280;7004;48.206;16.402;2023-10-09T02:47:01;100515.31;;;12.78;80.17
13869;BME280;7004;48.206;16.402;2023-10-09T02:49:38;100505.63;;;12.63;81.25
13869;BME280;7004;48.206;16.402;2023-10-09T02:52:07;100494.41;;;12.43;81.23
13869;BME280;7004;48.206;16.402;2023-10-09T02:54:34;100498.13;;;13.00;79.54
13869;BME280;7004;48.206;16.402;2023-10-09T02:57:07;100495.34;;;12.73;81.17
13869;BME280;7004;48.206;16.402;2023-10-09T02:59:37;100487.50;;;13.14;78.58
13869;BME280;7004;48.206;16.402;2023-10-09T03:02:07;100492.09;;;12.53;81.15
13869;BME280;7004;48.206;16.402;2023-10-09T03:04:34;100486.56;;;13.01;79.11
13869;BME280;7004;48.206;16.402;2023-10-09T03:07:00;100490.16;;;12.55;80.72
13869;BME280;7004;48.206;16.402;2023-10-09T03:09:27;100480.53;;;12.54;81.22
13869;BME280;7004;48.206;16.402;2023-10-09T03:12:03;100478.53;;;12.58;80.97
13869;BME280;7004;48.206;16.402;2023-10-09T03:14:35;100473.34;;;12.71;80.78
13869;BME280;7004;48.206;16.402;2023-10-09T03:17:05;100455.72;;;12.70;80.18
13869;BME280;7004;48.206;16.402;2023-10-09T03:19:33;100455.25;;;12.63;81.36
13869;BME280;7004;48.206;16.402;2023-10-09T03:22:05;100445.97;;;12.56;82.65
13869;BME280;7004;48.206;16.402;2023-10-09T03:24:36;100456.78;;;12.81;81.89
13869;BME280;7004;48.206;16.402;2023-10-09T03:27:05;100453.03;;;12.55;83.31
13869;BME280;7004;48.206;16.402;2023-10-09T03:29:31;100448.34;;;12.89;82.52
13869;BME280;7004;48.206;16.402;2023-10-09T03:31:59;100444.44;;;12.52;84.25
13869;BME280;7004;48.206;16.402;2023-10-09T03:34:26;100430.06;;;12.56;84.58
13869;BME280;7004;48.206;16.402;2023-10-09T03:36:53;100429.22;;;12.70;84.50
13869;BME280;7004;48.206;16.402;2023-10-09T03:39:31;100428.63;;;12.64;84.81
13869;BME280;7004;48.206;16.402;2023-10-09T03:42:01;100418.41;;;12.73;84.07
13869;BME280;7004;48.206;16.402;2023-10-09T03:44:32;100409.22;;;12.93;83.69
13869;BME280;7004;48.206;16.402;2023-10-09T03:47:00;100409.84;;;12.39;85.46
13869;BME280;7004;48.206;16.402;2023-10-09T03:49:28;100399.28;;;12.53;85.33
13869;BME280;7004;48.206;16.402;2023-10-09T03:51:55;100405.25;;;12.27;85.85
13869;BME280;7004;48.206;16.402;2023-10-09T03:54:21;100396.06;;;12.77;84.02
13869;BME280;7004;48.206;16.402;2023-10-09T03:56:51;100378.63;;;12.73;83.80
13869;BME280;7004;48.206;16.402;2023-10-09T03:59:18;100385.63;;;12.59;83.51
13869;BME280;7004;48.206;16.402;2023-10-09T04:01:49;100382.78;;;12.62;84.05
13869;BME280;7004;48.206;16.402;2023-10-09T04:04:19;100379.09;;;12.51;86.04
13869;BME280;7004;48.206;16.402;2023-10-09T04:06:49;100369.91;;;12.71;84.49
13869;BME280;7004;48.206;16.402;2023-10-09T04:09:17;100360.25;;;12.70;84.76
13869;BME280;7004;48.206;16.402;2023-10-09T04:11:46;100362.81;;;12.71;83.99
13869;BME280;7004;48.206;16.402;2023-10-09T04:14:13;100364.78;;;12.67;84.30
13869;BME280;7004;48.206;16.402;2023-10-09T04:16:58;100359.19;;;12.58;84.52
13869;BME280;7004;48.206;16.402;2023-10-09T04:19:50;100352.47;;;12.52;85.17
13869;BME280;7004;48.206;16.402;2023-10-09T04:22:40;100343.91;;;12.18;86.08
13869;BME280;7004;48.206;16.402;2023-10-09T04:25:19;100344.22;;;12.42;84.92
13869;BME280;7004;48.206;16.402;2023-10-09T04:28:00;100343.66;;;12.52;84.78
13869;BME280;7004;48.206;16.402;2023-10-09T04:30:46;100335.03;;;12.77;83.35
13869;BME280;7004;48.206;16.402;2023-10-09T04:33:21;100334.00;;;12.51;84.35
13869;BME280;7004;48.206;16.402;2023-10-09T04:36:02;100346.97;;;12.41;84.24
13869;BME280;7004;48.206;16.402;2023-10-09T04:38:49;100351.13;;;12.74;82.76
13869;BME280;7004;48.206;16.402;2023-10-09T04:41:30;100351.53;;;12.53;84.00
13869;BME280;7004;48.206;16.402;2023-10-09T04:44:09;100344.88;;;12.60;83.06
13869;BME280;7004;48.206;16.402;2023-10-09T04:46:52;100335.13;;;12.46;83.65
13869;BME280;7004;48.206;16.402;2023-10-09T04:49:38;100325.59;;;12.58;83.42
13869;BME280;7004;48.206;16.402;2023-10-09T04:52:22;100325.41;;;12.33;84.20
13869;BME280;7004;48.206;16.402;2023-10-09T04:54:54;100313.53;;;12.24;84.22
13869;BME280;7004;48.206;16.402;2023-10-09T04:57:33;100307.59;;;12.35;83.80
13869;BME280;7004;48.206;16.402;2023-10-09T05:00:20;100309.28;;;12.36;84.05
13869;BME280;7004;48.206;16.402;2023-10-09T05:02:57;100307.03;;;12.30;83.59
13869;BME280;7004;48.206;16.402;2023-10-09T05:05:29;100299.53;;;12.36;83.37
13869;BME280;7004;48.206;16.402;2023-10-09T05:08:15;100289.09;;;12.19;83.97
13869;BME280;7004;48.206;16.402;2023-10-09T05:16:09;100263.38;;;12.35;82.68
13869;BME280;7004;48.206;16.402;2023-10-09T05:18:49;100264.13;;;11.94;84.17
13869;BME280;7004;48.206;16.402;2023-10-09T05:21:39;100248.16;;;12.24;83.02
13869;BME280;7004;48.206;16.402;2023-10-09T05:24:08;100242.72;;;11.97;83.44
13869;BME280;7004;48.206;16.402;2023-10-09T05:26:45;100237.91;;;12.04;83.78
13869;BME280;7004;48.206;16.402;2023-10-09T05:29:17;100238.56;;;12.36;81.68
13869;BME280;7004;48.206;16.402;2023-10-09T05:32:07;100231.53;;;12.50;80.75
13869;BME280;7004;48.206;16.402;2023-10-09T05:34:41;100224.63;;;12.47;80.78
13869;BME280;7004;48.206;16.402;2023-10-09T05:37:29;100226.34;;;12.48;80.16
13869;BME280;7004;48.206;16.402;2023-10-09T05:40:01;100226.09;;;12.10;81.30
13869;BME280;7004;48.206;16.402;2023-10-09T05:42:29;100227.94;;;12.51;78.82
13869;BME280;7004;48.206;16.402;2023-10-09T05:45:15;100230.81;;;12.33;80.40
13869;BME280;7004;48.206;16.402;2023-10-09T05:48:01;100222.47;;;12.81;77.52
13869;BME280;7004;48.206;16.402;2023-10-09T05:50:40;100217.91;;;12.41;78.46
13869;BME280;7004;48.206;16.402;2023-10-09T05:53:25;100214.91;;;12.33;78.86
13869;BME280;7004;48.206;16.402;2023-10-09T05:56:09;100229.03;;;12.75;77.13
13869;BME280;7004;48.206;16.402;2023-10-09T05:58:54;100214.81;;;13.03;75.45
13869;BME280;7004;48.206;16.402;2023-10-09T06:01:32;100212.25;;;12.75;77.21
13869;BME280;7004;48.206;16.402;2023-10-09T06:04:18;100201.84;;;12.99;76.13
13869;BME280;7004;48.206;16.402;2023-10-09T06:06:45;100203.09;;;12.93;77.08
13869;BME280;7004;48.206;16.402;2023-10-09T06:09:15;100190.84;;;12.36;76.25
13869;BME280;7004;48.206;16.402;2023-10-09T06:11:42;100186.88;;;12.71;74.79
13869;BME280;7004;48.206;16.402;2023-10-09T06:14:16;100182.13;;;13.03;73.79
13869;BME280;7004;48.206;16.402;2023-10-09T06:16:52;100179.13;;;12.95;73.03
13869;BME280;7004;48.206;16.402;2023-10-09T06:19:47;100174.00;;;12.92;73.27
13869;BME280;7004;48.206;16.402;2023-10-09T06:22:15;100174.97;;;12.90;73.96
13869;BME280;7004;48.206;16.402;2023-10-09T06:24:59;100185.66;;;13.16;72.84
13869;BME280;7004;48.206;16.402;2023-10-09T06:27:35;100201.78;;;12.86;72.63
13869;BME280;7004;48.206;16.402;2023-10-09T06:30:01;100183.22;;;13.13;71.63
13869;BME280;7004;48.206;16.402;2023-10-09T06:32:43;100174.78;;;12.66;72.94
13869;BME280;7004;48.206;16.402;2023-10-09T06:35:35;100182.78;;;12.79;73.40
13869;BME280;7004;48.206;16.402;2023-10-09T06:38:03;100174.97;;;12.90;72.50
13869;BME280;7004;48.206;16.402;2023-10-09T06:40:50;100169.81;;;13.15;71.61
13869;BME280;7004;48.206;16.402;2023-10-09T06:43:32;100165.91;;;13.20;71.64
13869;BME280;7004;48.206;16.402;2023-10-09T06:46:02;100167.38;;;13.39;70.40
13869;BME280;7004;48.206;16.402;2023-10-09T06:49:03;100152.69;;;13.59;68.61
13869;BME280;7004;48.206;16.402;2023-10-09T06:51:49;100143.66;;;13.99;67.69
13869;BME280;7004;48.206;16.402;2023-10-09T06:54:21;100130.16;;;13.77;68.61
13869;BME280;7004;48.206;16.402;2023-10-09T06:56:51;100132.63;;;13.29;70.34
13869;BME280;7004;48.206;16.402;2023-10-09T06:59:20;100142.47;;;14.04;68.28
13869;BME280;7004;48.206;16.402;2023-10-09T07:01:51;100124.84;;;13.64;70.05
13869;BME280;7004;48.206;16.402;2023-10-09T07:04:35;100126.00;;;13.98;68.95
13869;BME280;7004;48.206;16.402;2023-10-09T07:07:02;100133.53;;;14.41;66.79
13869;BME280;7004;48.206;16.402;2023-10-09T07:09:35;100129.41;;;14.37;66.62
13869;BME280;7004;48.206;16.402;2023-10-09T07:12:32;100145.06;;;14.29;67.06
13869;BME280;7004;48.206;16.402;2023-10-09T07:15:02;100135.97;;;14.45;67.23
13869;BME280;7004;48.206;16.402;2023-10-09T07:17:31;100136.00;;;13.95;68.78
13869;BME280;7004;48.206;16.402;2023-10-09T07:20:00;100121.31;;;14.02;68.98
13869;BME280;7004;48.206;16.402;2023-10-09T07:23:02;100119.13;;;13.58;70.97
13869;BME280;7004;48.206;16.402;2023-10-09T07:25:44;100131.38;;;14.59;66.97
13869;BME280;7004;48.206;16.402;2023-10-09T07:28:24;100120.88;;;14.08;68.33
13869;BME280;7004;48.206;16.402;2023-10-09T07:31:03;100124.06;;;15.10;64.05
13869;BME280;7004;48.206;16.402;2023-10-09T07:33:30;100120.50;;;14.62;66.64
13869;BME280;7004;48.206;16.402;2023-10-09T07:36:16;100112.38;;;14.53;66.94
13869;BME280;7004;48.206;16.402;2023-10-09T07:38:56;100102.03;;;14.72;66.20
13869;BME280;7004;48.206;16.402;2023-10-09T07:41:22;100108.34;;;15.06;65.47
13869;BME280;7004;48.206;16.402;2023-10-09T07:43:48;100104.25;;;15.14;64.75
13869;BME280;7004;48.206;16.402;2023-10-09T07:46:18;100096.06;;;15.28;64.45
13869;BME280;7004;48.206;16.402;2023-10-09T07:49:03;100106.06;;;14.54;66.99
13869;BME280;7004;48.206;16.402;2023-10-09T07:51:37;100089.69;;;15.98;62.39
13869;BME280;7004;48.206;16.402;2023-10-09T07:54:03;100100.81;;;16.14;61.40
13869;BME280;7004;48.206;16.402;2023-10-09T07:56:37;100093.94;;;15.09;65.03
13869;BME280;7004;48.206;16.402;2023-10-09T07:59:12;100092.91;;;15.34;63.95
13869;BME280;7004;48.206;16.402;2023-10-09T08:01:41;100083.84;;;16.04;62.38
13869;BME280;7004;48.206;16.402;2023-10-09T08:04:29;100086.41;;;16.06;61.45
13869;BME280;7004;48.206;16.402;2023-10-09T08:07:11;100098.69;;;16.41;60.18
13869;BME280;7004;48.206;16.402;2023-10-09T08:09:55;100078.22;;;16.73;58.65
13869;BME280;7004;48.206;16.402;2023-10-09T08:12:40;100065.38;;;17.82;55.45
13869;BME280;7004;48.206;16.402;2023-10-09T08:15:17;100057.53;;;17.08;57.65
13869;BME280;7004;48.206;16.402;2023-10-09T08:17:57;100060.28;;;16.64;58.96
13869;BME280;7004;48.206;16.402;2023-10-09T08:20:44;100061.97;;;16.65;58.50
13869;BME280;7004;48.206;16.402;2023-10-09T08:23:23;100048.59;;;17.18;56.38
13869;BME280;7004;48.206;16.402;2023-10-09T08:26:05;100046.56;;;17.32;56.79
13869;BME280;7004;48.206;16.402;2023-10-09T08:28:45;100055.44;;;17.32;57.11
13869;BME280;7004;48.206;16.402;2023-10-09T08:31:19;100059.25;;;18.01;55.12
13869;BME280;7004;48.206;16.402;2023-10-09T08:34:03;100059.31;;;16.97;57.22
13869;BME280;7004;48.206;16.402;2023-10-09T08:36:29;100048.56;;;18.01;54.57
13869;BME280;7004;48.206;16.402;2023-10-09T08:39:05;100039.44;;;19.67;50.85
13869;BME280;7004;48.206;16.402;2023-10-09T08:41:55;100051.41;;;18.09;53.82
13869;BME280;7004;48.206;16.402;2023-10-09T08:44:28;100037.72;;;17.62;57.71
13869;BME280;7004;48.206;16.402;2023-10-09T08:46:57;100035.81;;;18.63;52.39
13869;BME280;7004;48.206;16.402;2023-10-09T08:49:26;100035.50;;;18.46;53.29
13869;BME280;7004;48.206;16.402;2023-10-09T08:51:53;100035.41;;;18.77;51.53
13869;BME280;7004;48.206;16.402;2023-10-09T08:54:20;100028.06;;;18.89;52.12
13869;BME280;7004;48.206;16.402;2023-10-09T08:56:46;100027.34;;;18.38;52.28
13869;BME280;7004;48.206;16.402;2023-10-09T08:59:20;100020.59;;;18.24;55.63
13869;BME280;7004;48.206;16.402;2023-10-09T09:01:50;100015.53;;;18.50;53.80
13869;BME280;7004;48.206;16.402;2023-10-09T09:04:42;100026.91;;;18.14;55.13
13869;BME280;7004;48.206;16.402;2023-10-09T09:07:30;100016.91;;;18.06;55.82
13869;BME280;7004;48.206;16.402;2023-10-09T09:10:05;100009.75;;;18.45;54.65
13869;BME280;7004;48.206;16.402;2023-10-09T09:12:47;100006.22;;;18.35;54.22
13869;BME280;7004;48.206;16.402;2023-10-09T09:15:20;99990.56;;;18.69;53.09
13869;BME280;7004;48.206;16.402;2023-10-09T09:17:47;99990.59;;;18.40;54.61
13869;BME280;7004;48.206;16.402;2023-10-09T09:20:24;99994.94;;;18.41;54.19
13869;BME280;7004;48.206;16.402;2023-10-09T09:22:58;99999.59;;;18.59;54.53
13869;BME280;7004;48.206;16.402;2023-10-09T09:25:24;99998.47;;;18.32;55.25
13869;BME280;7004;48.206;16.402;2023-10-09T09:28:05;99991.72;;;18.86;53.41
13869;BME280;7004;48.206;16.402;2023-10-09T09:30:39;99996.63;;;18.52;53.83
13869;BME280;7004;48.206;16.402;2023-10-09T09:33:20;99997.91;;;18.38;55.42
13869;BME280;7004;48.206;16.402;2023-10-09T09:36:00;99999.72;;;18.08;55.62
13869;BME280;7004;48.206;16.402;2023-10-09T09:38:33;99998.75;;;18.39;55.38
13869;BME280;7004;48.206;16.402;2023-10-09T09:41:09;99997.34;;;18.25;55.81
13869;BME280;7004;48.206;16.402;2023-10-09T09:43:37;99993.94;;;18.62;54.95
13869;BME280;7004;48.206;16.402;2023-10-09T09:46:07;99994.38;;;18.57;54.75
13869;BME280;7004;48.206;16.402;2023-10-09T09:48:39;99994.81;;;19.29;54.72
13869;BME280;7004;48.206;16.402;2023-10-09T09:51:12;100003.13;;;19.63;54.83
13869;BME280;7004;48.206;16.402;2023-10-09T09:53:39;100006.09;;;20.33;50.86
13869;BME280;7004;48.206;16.402;2023-10-09T09:56:06;100008.38;;;21.00;56.37
13869;BME280;7004;48.206;16.402;2023-10-09T09:58:35;100012.31;;;20.16;54.05
13869;BME280;7004;48.206;16.402;2023-10-09T10:01:10;100019.44;;;21.23;54.33
13869;BME280;7004;48.206;16.402;2023-10-09T10:04:05;100017.69;;;20.34;62.00
13869;BME280;7004;48.206;16.402;2023-10-09T10:06:34;100015.13;;;19.31;55.35
13869;BME280;7004;48.206;16.402;2023-10-09T10:09:01;100007.88;;;20.24;53.63
13869;BME280;7004;48.206;16.402;2023-10-09T10:11:47;100014.03;;;19.61;55.88
13869;BME280;7004;48.206;16.402;2023-10-09T10:14:18;100002.44;;;20.16;55.26
13869;BME280;7004;48.206;16.402;2023-10-09T10:17:05;100017.16;;;20.30;55.10
13869;BME280;7004;48.206;16.402;2023-10-09T10:22:28;100017.78;;;20.24;55.26
13869;BME280;7004;48.206;16.402;2023-10-09T10:24:56;100028.50;;;19.78;56.64
13869;BME280;7004;48.206;16.402;2023-10-09T10:27:29;100024.69;;;19.34;57.72
13869;BME280;7004;48.206;16.402;2023-10-09T10:30:26;100022.91;;;19.90;56.75
13869;BME280;7004;48.206;16.402;2023-10-09T10:32:58;100027.59;;;19.13;57.33
13869;BME280;7004;48.206;16.402;2023-10-09T10:35:36;100031.88;;;19.43;56.78
13869;BME280;7004;48.206;16.402;2023-10-09T10:38:33;100034.59;;;19.61;57.00
13869;BME280;7004;48.206;16.402;2023-10-09T10:41:16;100030.03;;;19.43;56.58
13869;BME280;7004;48.206;16.402;2023-10-09T10:43:45;100035.84;;;19.39;56.79
13869;BME280;7004;48.206;16.402;2023-10-09T10:46:19;100026.69;;;19.22;57.03
13869;BME280;7004;48.206;16.402;2023-10-09T10:49:05;100042.09;;;19.57;56.85
13869;BME280;7004;48.206;16.402;2023-10-09T10:51:42;100041.47;;;18.79;58.17
13869;BME280;7004;48.206;16.402;2023-10-09T10:54:24;100052.84;;;18.71;59.15
13869;BME280;7004;48.206;16.402;2023-10-09T10:57:03;100045.38;;;19.04;58.29
13869;BME280;7004;48.206;16.402;2023-10-09T10:59:46;100048.63;;;18.59;61.53
13869;BME280;7004;48.206;16.402;2023-10-09T11:02:12;100033.81;;;18.65;62.38
13869;BME280;7004;48.206;16.402;2023-10-09T11:04:39;100029.94;;;19.26;61.85
13869;BME280;7004;48.206;16.402;2023-10-09T11:07:08;100047.91;;;18.57;64.91
13869;BME280;7004;48.206;16.402;2023-10-09T11:09:50;100033.56;;;18.68;66.46
13869;BME280;7004;48.206;16.402;2023-10-09T11:12:45;100015.06;;;18.06;71.39
13869;BME280;7004;48.206;16.402;2023-10-09T11:15:30;100007.19;;;18.44;71.40
13869;BME280;7004;48.206;16.402;2023-10-09T11:18:05;100005.09;;;18.76;71.37
13869;BME280;7004;48.206;16.402;2023-10-09T11:20:56;100014.25;;;18.64;72.19
13869;BME280;7004;48.206;16.402;2023-10-09T11:23:30;99995.75;;;18.03;72.13
13869;BME280;7004;48.206;16.402;2023-10-09T11:26:00;99992.28;;;18.61;71.73
13869;BME280;7004;48.206;16.402;2023-10-09T11:28:45;100000.00;;;18.73;71.69
13869;BME280;7004;48.206;16.402;2023-10-09T11:31:23;100013.41;;;18.64;73.09
13869;BME280;7004;48.206;16.402;2023-10-09T11:33:51;100004.25;;;18.27;75.20
13869;BME280;7004;48.206;16.402;2023-10-09T11:36:18;100007.44;;;18.02;75.80
13869;BME280;7004;48.206;16.402;2023-10-09T11:38:58;100018.59;;;18.36;78.01
13869;BME280;7004;48.206;16.402;2023-10-09T11:41:42;100016.19;;;18.04;79.63
13869;BME280;7004;48.206;16.402;2023-10-09T11:44:11;100025.22;;;18.22;80.90
13869;BME280;7004;48.206;16.402;2023-10-09T11:47:03;100004.22;;;17.98;81.73
13869;BME280;7004;48.206;16.402;2023-10-09T11:49:56;100013.53;;;18.23;81.46
13869;BME280;7004;48.206;16.402;2023-10-09T11:52:58;100034.25;;;18.21;85.87
13869;BME280;7004;48.206;16.402;2023-10-09T11:55:47;100028.72;;;18.13;84.97
13869;BME280;7004;48.206;16.402;2023-10-09T11:58:17;100018.13;;;17.92;87.18
13869;BME280;7004;48.206;16.402;2023-10-09T12:00:56;100024.13;;;17.44;83.54
13869;BME280;7004;48.206;16.402;2023-10-09T12:03:26;100016.66;;;17.78;85.95
13869;BME280;7004;48.206;16.402;2023-10-09T12:06:01;100013.22;;;18.07;85.52
13869;BME280;7004;48.206;16.402;2023-10-09T12:08:32;100012.63;;;17.84;84.58
13869;BME280;7004;48.206;16.402;2023-10-09T12:10:59;100007.69;;;17.89;85.40
13869;BME280;7004;48.206;16.402;2023-10-09T12:13:28;100013.94;;;17.68;84.53
13869;BME280;7004;48.206;16.402;2023-10-09T12:15:55;100009.59;;;17.67;83.71
13869;BME280;7004;48.206;16.402;2023-10-09T12:18:21;100005.59;;;17.83;85.80
13869;BME280;7004;48.206;16.402;2023-10-09T12:20:50;100011.09;;;17.60;87.92
13869;BME280;7004;48.206;16.402;2023-10-09T12:23:18;100002.72;;;17.75;90.45
13869;BME280;7004;48.206;16.402;2023-10-09T12:25:45;100001.59;;;17.77;82.47
13869;BME280;7004;48.206;16.402;2023-10-09T12:28:14;99997.91;;;17.68;82.11
13869;BME280;7004;48.206;16.402;2023-10-09T12:30:41;99994.34;;;17.89;78.63
13869;BME280;7004;48.206;16.402;2023-10-09T12:33:09;99996.00;;;17.80;83.30
13869;BME280;7004;48.206;16.402;2023-10-09T12:35:39;100006.03;;;17.57;87.56
13869;BME280;7004;48.206;16.402;2023-10-09T12:38:07;100005.75;;;17.60;80.26
13869;BME280;7004;48.206;16.402;2023-10-09T12:40:39;99997.94;;;17.07;79.72
13869;BME280;7004;48.206;16.402;2023-10-09T12:43:21;100003.66;;;17.23;84.74
13869;BME280;7004;48.206;16.402;2023-10-09T12:45:47;99995.56;;;17.14;89.95
13869;BME280;7004;48.206;16.402;2023-10-09T12:48:14;99980.16;;;16.96;87.45
13869;BME280;7004;48.206;16.402;2023-10-09T12:50:41;99985.44;;;16.45;88.62
13869;BME280;7004;48.206;16.402;2023-10-09T12:53:13;99975.41;;;16.58;88.68
13869;BME280;7004;48.206;16.402;2023-10-09T12:55:43;99977.00;;;16.28;90.35
13869;BME280;7004;48.206;16.402;2023-10-09T12:58:11;99978.88;;;16.16;91.68
13869;BME280;7004;48.206;16.402;2023-10-09T13:00:43;99982.38;;;15.73;94.72
13869;BME280;7004;48.206;16.402;2023-10-09T13:03:16;99989.66;;;16.15;94.50
13869;BME280;7004;48.206;16.402;2023-10-09T13:05:51;99981.66;;;16.15;96.60
13869;BME280;7004;48.206;16.402;2023-10-09T13:08:26;99978.09;;;15.93;96.73
13869;BME280;7004;48.206;16.402;2023-10-09T13:11:10;99972.34;;;16.09;96.46
13869;BME280;7004;48.206;16.402;2023-10-09T13:13:38;99957.38;;;16.50;96.09
13869;BME280;7004;48.206;16.402;2023-10-09T13:18:40;99974.22;;;16.30;95.63
13869;BME280;7004;48.206;16.402;2023-10-09T13:21:07;99961.72;;;16.72;95.25
13869;BME280;7004;48.206;16.402;2023-10-09T13:23:34;99967.41;;;16.58;97.25
13869;BME280;7004;48.206;16.402;2023-10-09T13:26:08;99972.47;;;16.61;100.00
13869;BME280;7004;48.206;16.402;2023-10-09T13:28:53;99969.44;;;16.87;100.00
13869;BME280;7004;48.206;16.402;2023-10-09T13:31:21;99961.91;;;16.38;100.00
13869;BME280;7004;48.206;16.402;2023-10-09T13:33:49;99954.63;;;16.41;100.00
13869;BME280;7004;48.206;16.402;2023-10-09T13:36:15;99953.84;;;16.50;100.00
13869;BME280;7004;48.206;16.402;2023-10-09T13:39:03;99948.84;;;16.35;100.00
13869;BME280;7004;48.206;16.402;2023-10-09T13:47:01;99964.28;;;16.53;100.00
13869;BME280;7004;48.206;16.402;2023-10-09T13:49:28;99971.66;;;16.49;100.00